sensor_id;sensor_type;location;lat;lon;timestamp;P1;durP1;ratioP1;P2;durP2;ratioP2
80115;SDS011;69423;47.608;19.366;2024-03-22T00:00:02;30.43;;;28.67;;
80115;SDS011;69423;47.608;19.366;2024-03-22T00:00:34;30.97;;;29.07;;
80115;SDS011;69423;47.608;19.366;2024-03-22T00:01:05;30.13;;;28.50;;
80115;SDS011;69423;47.608;19.366;2024-03-22T00:01:36;30.17;;;28.37;;
80115;SDS011;69423;47.608;19.366;2024-03-22T00:02:08;28.47;;;26.93;;
80115;SDS011;69423;47.608;19.366;2024-03-22T00:02:39;28.27;;;26.87;;
80115;SDS011;69423;47.608;19.366;2024-03-22T00:03:10;28.60;;;27.30;;
80115;SDS011;69423;47.608;19.366;2024-03-22T00:03:41;29.00;;;27.80;;
80115;SDS011;69423;47.608;19.366;2024-03-22T00:04:13;29.43;;;28.07;;
80115;SDS011;69423;47.608;19.366;2024-03-22T00:04:44;31.60;;;29.53;;
80115;SDS011;69423;47.608;19.366;2024-03-22T00:05:15;31.17;;;28.93;;
80115;SDS011;69423;47.608;19.366;2024-03-22T00:05:47;30.60;;;28.73;;
80115;SDS011;69423;47.608;19.366;2024-03-22T00:06:18;33.77;;;31.83;;
80115;SDS011;69423;47.608;19.366;2024-03-22T00:06:49;35.50;;;33.50;;
80115;SDS011;69423;47.608;19.366;2024-03-22T00:07:21;36.03;;;34.43;;
80115;SDS011;69423;47.608;19.366;2024-03-22T00:07:52;36.47;;;34.97;;
80115;SDS011;69423;47.608;19.366;2024-03-22T00:08:23;36.20;;;34.83;;
80115;SDS011;69423;47.608;19.366;2024-03-22T00:08:54;37.10;;;35.80;;
80115;SDS011;69423;47.608;19.366;2024-03-22T00:09:25;37.20;;;35.80;;
80115;SDS011;69423;47.608;19.366;2024-03-22T00:09:56;38.87;;;37.10;;
80115;SDS011;69423;47.608;19.366;2024-03-22T00:10:27;39.40;;;37.57;;
80115;SDS011;69423;47.608;19.366;2024-03-22T00:10:58;39.20;;;37.47;;
80115;SDS011;69423;47.608;19.366;2024-03-22T00:11:29;37.77;;;35.97;;
80115;SDS011;69423;47.608;19.366;2024-03-22T00:12:00;38.30;;;36.53;;
80115;SDS011;69423;47.608;19.366;2024-03-22T00:12:31;39.23;;;37.50;;
80115;SDS011;69423;47.608;19.366;2024-03-22T00:13:02;39.33;;;37.67;;
80115;SDS011;69423;47.608;19.366;2024-03-22T00:13:33;40.27;;;38.60;;
80115;SDS011;69423;47.608;19.366;2024-03-22T00:14:04;41.50;;;39.77;;
80115;SDS011;69423;47.608;19.366;2024-03-22T00:14:36;41.40;;;39.63;;
80115;SDS011;69423;47.608;19.366;2024-03-22T00:15:07;39.10;;;37.63;;
80115;SDS011;69423;47.608;19.366;2024-03-22T00:15:38;39.10;;;37.40;;
80115;SDS011;69423;47.608;19.366;2024-03-22T00:16:09;41.23;;;39.33;;
80115;SDS011;69423;47.608;19.366;2024-03-22T00:16:40;43.93;;;42.30;;
80115;SDS011;69423;47.608;19.366;2024-03-22T00:17:11;45.57;;;43.57;;
80115;SDS011;69423;47.608;19.366;2024-03-22T00:17:43;44.53;;;42.23;;
80115;SDS011;69423;47.608;19.366;2024-03-22T00:18:15;45.10;;;42.23;;
80115;SDS011;69423;47.608;19.366;2024-03-22T00:18:47;43.73;;;41.70;;
80115;SDS011;69423;47.608;19.366;2024-03-22T00:19:18;42.63;;;41.03;;
80115;SDS011;69423;47.608;19.366;2024-03-22T00:19:49;46.83;;;44.80;;
80115;SDS011;69423;47.608;19.366;2024-03-22T00:20:20;49.60;;;46.93;;
80115;SDS011;69423;47.608;19.366;2024-03-22T00:20:51;48.27;;;45.83;;
80115;SDS011;69423;47.608;19.366;2024-03-22T00:21:22;45.60;;;43.83;;
80115;SDS011;69423;47.608;19.366;2024-03-22T00:21:53;46.43;;;44.60;;
80115;SDS011;69423;47.608;19.366;2024-03-22T00:22:24;48.40;;;46.57;;
80115;SDS011;69423;47.608;19.366;2024-03-22T00:22:56;47.43;;;45.47;;
80115;SDS011;69423;47.608;19.366;2024-03-22T00:23:27;46.10;;;44.03;;
80115;SDS011;69423;47.608;19.366;2024-03-22T00:23:59;46.00;;;44.03;;
80115;SDS011;69423;47.608;19.366;2024-03-22T00:24:31;47.20;;;45.00;;
80115;SDS011;69423;47.608;19.366;2024-03-22T00:25:03;46.63;;;44.73;;
80115;SDS011;69423;47.608;19.366;2024-03-22T00:25:34;45.40;;;43.60;;
80115;SDS011;69423;47.608;19.366;2024-03-22T00:26:05;45.17;;;43.43;;
80115;SDS011;69423;47.608;19.366;2024-03-22T00:26:36;47.67;;;45.53;;
80115;SDS011;69423;47.608;19.366;2024-03-22T00:27:07;48.13;;;46.10;;
80115;SDS011;69423;47.608;19.366;2024-03-22T00:27:38;45.70;;;43.97;;
80115;SDS011;69423;47.608;19.366;2024-03-22T00:28:09;47.80;;;45.93;;
80115;SDS011;69423;47.608;19.366;2024-03-22T00:28:40;48.47;;;46.77;;
80115;SDS011;69423;47.608;19.366;2024-03-22T00:29:11;47.80;;;46.10;;
80115;SDS011;69423;47.608;19.366;2024-03-22T00:29:42;46.00;;;44.30;;
80115;SDS011;69423;47.608;19.366;2024-03-22T00:30:13;45.07;;;43.37;;
80115;SDS011;69423;47.608;19.366;2024-03-22T00:30:45;46.53;;;44.80;;
80115;SDS011;69423;47.608;19.366;2024-03-22T00:31:16;45.47;;;43.83;;
80115;SDS011;69423;47.608;19.366;2024-03-22T00:31:47;45.43;;;43.87;;
80115;SDS011;69423;47.608;19.366;2024-03-22T00:32:18;47.83;;;45.73;;
80115;SDS011;69423;47.608;19.366;2024-03-22T00:32:49;45.90;;;44.13;;
80115;SDS011;69423;47.608;19.366;2024-03-22T00:33:20;45.40;;;43.67;;
80115;SDS011;69423;47.608;19.366;2024-03-22T00:33:51;45.53;;;43.90;;
80115;SDS011;69423;47.608;19.366;2024-03-22T00:34:22;45.00;;;43.07;;
80115;SDS011;69423;47.608;19.366;2024-03-22T00:34:53;46.30;;;43.87;;
80115;SDS011;69423;47.608;19.366;2024-03-22T00:35:24;46.23;;;43.83;;
80115;SDS011;69423;47.608;19.366;2024-03-22T00:35:55;45.60;;;43.50;;
80115;SDS011;69423;47.608;19.366;2024-03-22T00:36:26;44.90;;;43.20;;
80115;SDS011;69423;47.608;19.366;2024-03-22T00:36:57;44.97;;;43.07;;
80115;SDS011;69423;47.608;19.366;2024-03-22T00:37:28;45.70;;;43.47;;
80115;SDS011;69423;47.608;19.366;2024-03-22T00:37:59;44.40;;;42.30;;
80115;SDS011;69423;47.608;19.366;2024-03-22T00:38:30;44.93;;;42.93;;
80115;SDS011;69423;47.608;19.366;2024-03-22T00:39:01;44.80;;;42.77;;
80115;SDS011;69423;47.608;19.366;2024-03-22T00:39:33;44.07;;;42.27;;
80115;SDS011;69423;47.608;19.366;2024-03-22T00:40:05;45.90;;;43.80;;
80115;SDS011;69423;47.608;19.366;2024-03-22T00:40:36;46.03;;;44.20;;
80115;SDS011;69423;47.608;19.366;2024-03-22T00:41:07;45.73;;;44.10;;
80115;SDS011;69423;47.608;19.366;2024-03-22T00:41:39;44.10;;;42.50;;
80115;SDS011;69423;47.608;19.366;2024-03-22T00:42:10;44.27;;;42.67;;
80115;SDS011;69423;47.608;19.366;2024-03-22T00:42:41;44.47;;;42.73;;
80115;SDS011;69423;47.608;19.366;2024-03-22T00:43:12;44.73;;;42.87;;
80115;SDS011;69423;47.608;19.366;2024-03-22T00:43:43;44.87;;;42.90;;
80115;SDS011;69423;47.608;19.366;2024-03-22T00:44:14;43.57;;;41.77;;
80115;SDS011;69423;47.608;19.366;2024-03-22T00:44:45;42.40;;;40.83;;
80115;SDS011;69423;47.608;19.366;2024-03-22T00:45:16;42.00;;;40.43;;
80115;SDS011;69423;47.608;19.366;2024-03-22T00:45:47;41.87;;;40.17;;
80115;SDS011;69423;47.608;19.366;2024-03-22T00:46:18;43.73;;;41.87;;
80115;SDS011;69423;47.608;19.366;2024-03-22T00:46:49;44.13;;;42.30;;
80115;SDS011;69423;47.608;19.366;2024-03-22T00:47:22;44.63;;;42.03;;
80115;SDS011;69423;47.608;19.366;2024-03-22T00:47:53;44.23;;;41.57;;
80115;SDS011;69423;47.608;19.366;2024-03-22T00:48:24;43.70;;;41.27;;
80115;SDS011;69423;47.608;19.366;2024-03-22T00:48:55;44.53;;;42.20;;
80115;SDS011;69423;47.608;19.366;2024-03-22T00:49:26;44.93;;;42.60;;
80115;SDS011;69423;47.608;19.366;2024-03-22T00:49:57;43.57;;;41.80;;
80115;SDS011;69423;47.608;19.366;2024-03-22T00:50:29;42.23;;;41.00;;
80115;SDS011;69423;47.608;19.366;2024-03-22T00:51:00;42.70;;;41.27;;
80115;SDS011;69423;47.608;19.366;2024-03-22T00:51:31;43.37;;;41.40;;
80115;SDS011;69423;47.608;19.366;2024-03-22T00:52:02;43.47;;;41.47;;
80115;SDS011;69423;47.608;19.366;2024-03-22T00:52:33;42.90;;;41.03;;
80115;SDS011;69423;47.608;19.366;2024-03-22T00:53:04;41.37;;;39.73;;
80115;SDS011;69423;47.608;19.366;2024-03-22T00:53:36;42.23;;;40.37;;
80115;SDS011;69423;47.608;19.366;2024-03-22T00:54:07;42.53;;;40.53;;
80115;SDS011;69423;47.608;19.366;2024-03-22T00:54:38;42.43;;;40.33;;
80115;SDS011;69423;47.608;19.366;2024-03-22T00:55:11;42.00;;;40.17;;
80115;SDS011;69423;47.608;19.366;2024-03-22T00:55:42;41.67;;;39.83;;
80115;SDS011;69423;47.608;19.366;2024-03-22T00:56:13;41.97;;;40.10;;
80115;SDS011;69423;47.608;19.366;2024-03-22T00:56:44;40.57;;;38.63;;
80115;SDS011;69423;47.608;19.366;2024-03-22T00:57:15;41.07;;;39.27;;
80115;SDS011;69423;47.608;19.366;2024-03-22T00:57:46;40.77;;;39.30;;
80115;SDS011;69423;47.608;19.366;2024-03-22T00:58:17;40.33;;;39.13;;
80115;SDS011;69423;47.608;19.366;2024-03-22T00:58:49;40.27;;;38.97;;
80115;SDS011;69423;47.608;19.366;2024-03-22T00:59:20;40.73;;;39.33;;
80115;SDS011;69423;47.608;19.366;2024-03-22T00:59:51;40.03;;;38.33;;
80115;SDS011;69423;47.608;19.366;2024-03-22T01:00:22;39.93;;;38.07;;
80115;SDS011;69423;47.608;19.366;2024-03-22T01:00:54;38.73;;;37.33;;
80115;SDS011;69423;47.608;19.366;2024-03-22T01:01:25;39.23;;;37.60;;
80115;SDS011;69423;47.608;19.366;2024-03-22T01:01:56;40.70;;;38.97;;
80115;SDS011;69423;47.608;19.366;2024-03-22T01:02:27;39.87;;;38.13;;
80115;SDS011;69423;47.608;19.366;2024-03-22T01:02:58;40.30;;;38.67;;
80115;SDS011;69423;47.608;19.366;2024-03-22T01:03:29;40.07;;;38.50;;
80115;SDS011;69423;47.608;19.366;2024-03-22T01:04:00;39.13;;;37.73;;
80115;SDS011;69423;47.608;19.366;2024-03-22T01:04:31;39.00;;;37.53;;
80115;SDS011;69423;47.608;19.366;2024-03-22T01:05:04;39.83;;;38.27;;
80115;SDS011;69423;47.608;19.366;2024-03-22T01:05:35;40.13;;;38.50;;
80115;SDS011;69423;47.608;19.366;2024-03-22T01:06:06;39.47;;;37.67;;
80115;SDS011;69423;47.608;19.366;2024-03-22T01:06:38;37.70;;;36.37;;
80115;SDS011;69423;47.608;19.366;2024-03-22T01:07:10;40.07;;;38.43;;
80115;SDS011;69423;47.608;19.366;2024-03-22T01:07:41;40.10;;;38.13;;
80115;SDS011;69423;47.608;19.366;2024-03-22T01:08:12;39.83;;;38.07;;
80115;SDS011;69423;47.608;19.366;2024-03-22T01:08:43;40.30;;;38.73;;
80115;SDS011;69423;47.608;19.366;2024-03-22T01:09:14;37.93;;;36.33;;
80115;SDS011;69423;47.608;19.366;2024-03-22T01:09:45;39.97;;;37.90;;
80115;SDS011;69423;47.608;19.366;2024-03-22T01:10:16;38.60;;;36.87;;
80115;SDS011;69423;47.608;19.366;2024-03-22T01:10:49;38.17;;;36.77;;
80115;SDS011;69423;47.608;19.366;2024-03-22T01:11:20;39.13;;;37.57;;
80115;SDS011;69423;47.608;19.366;2024-03-22T01:11:51;37.23;;;35.87;;
80115;SDS011;69423;47.608;19.366;2024-03-22T01:12:22;37.90;;;36.50;;
80115;SDS011;69423;47.608;19.366;2024-03-22T01:12:53;38.10;;;36.63;;
80115;SDS011;69423;47.608;19.366;2024-03-22T01:13:24;38.67;;;37.23;;
80115;SDS011;69423;47.608;19.366;2024-03-22T01:13:55;38.20;;;36.37;;
80115;SDS011;69423;47.608;19.366;2024-03-22T01:14:26;38.87;;;37.20;;
80115;SDS011;69423;47.608;19.366;2024-03-22T01:14:57;36.87;;;35.70;;
80115;SDS011;69423;47.608;19.366;2024-03-22T01:15:28;37.03;;;35.97;;
80115;SDS011;69423;47.608;19.366;2024-03-22T01:15:59;37.70;;;36.33;;
80115;SDS011;69423;47.608;19.366;2024-03-22T01:16:30;37.17;;;35.80;;
80115;SDS011;69423;47.608;19.366;2024-03-22T01:17:02;38.10;;;36.53;;
80115;SDS011;69423;47.608;19.366;2024-03-22T01:17:33;38.13;;;36.43;;
80115;SDS011;69423;47.608;19.366;2024-03-22T01:18:04;37.93;;;36.40;;
80115;SDS011;69423;47.608;19.366;2024-03-22T01:18:36;37.90;;;36.73;;
80115;SDS011;69423;47.608;19.366;2024-03-22T01:19:08;36.27;;;35.30;;
80115;SDS011;69423;47.608;19.366;2024-03-22T01:19:39;35.10;;;34.13;;
80115;SDS011;69423;47.608;19.366;2024-03-22T01:20:10;35.03;;;34.07;;
80115;SDS011;69423;47.608;19.366;2024-03-22T01:20:41;36.53;;;35.57;;
80115;SDS011;69423;47.608;19.366;2024-03-22T01:21:12;36.03;;;34.97;;
80115;SDS011;69423;47.608;19.366;2024-03-22T01:21:43;35.83;;;34.70;;
80115;SDS011;69423;47.608;19.366;2024-03-22T01:22:14;35.63;;;34.43;;
80115;SDS011;69423;47.608;19.366;2024-03-22T01:22:46;36.27;;;35.23;;
80115;SDS011;69423;47.608;19.366;2024-03-22T01:23:17;36.83;;;35.80;;
80115;SDS011;69423;47.608;19.366;2024-03-22T01:23:49;35.47;;;34.47;;
80115;SDS011;69423;47.608;19.366;2024-03-22T01:24:20;34.73;;;34.00;;
80115;SDS011;69423;47.608;19.366;2024-03-22T01:24:51;35.10;;;34.40;;
80115;SDS011;69423;47.608;19.366;2024-03-22T01:25:22;36.13;;;35.33;;
80115;SDS011;69423;47.608;19.366;2024-03-22T01:25:53;36.63;;;35.70;;
80115;SDS011;69423;47.608;19.366;2024-03-22T01:26:24;37.47;;;36.53;;
80115;SDS011;69423;47.608;19.366;2024-03-22T01:26:55;36.00;;;34.80;;
80115;SDS011;69423;47.608;19.366;2024-03-22T01:27:26;35.77;;;34.63;;
80115;SDS011;69423;47.608;19.366;2024-03-22T01:27:57;35.60;;;34.37;;
80115;SDS011;69423;47.608;19.366;2024-03-22T01:28:28;34.20;;;33.37;;
80115;SDS011;69423;47.608;19.366;2024-03-22T01:28:59;35.00;;;34.40;;
80115;SDS011;69423;47.608;19.366;2024-03-22T01:29:30;36.57;;;35.57;;
80115;SDS011;69423;47.608;19.366;2024-03-22T01:30:02;36.03;;;34.83;;
80115;SDS011;69423;47.608;19.366;2024-03-22T01:30:33;35.57;;;34.13;;
80115;SDS011;69423;47.608;19.366;2024-03-22T01:31:04;35.63;;;34.40;;
80115;SDS011;69423;47.608;19.366;2024-03-22T01:31:35;35.77;;;34.83;;
80115;SDS011;69423;47.608;19.366;2024-03-22T01:32:06;35.50;;;34.57;;
80115;SDS011;69423;47.608;19.366;2024-03-22T01:32:38;34.73;;;33.83;;
80115;SDS011;69423;47.608;19.366;2024-03-22T01:33:09;36.13;;;35.03;;
80115;SDS011;69423;47.608;19.366;2024-03-22T01:33:40;36.23;;;35.03;;
80115;SDS011;69423;47.608;19.366;2024-03-22T01:34:11;34.10;;;33.23;;
80115;SDS011;69423;47.608;19.366;2024-03-22T01:34:42;32.33;;;31.73;;
80115;SDS011;69423;47.608;19.366;2024-03-22T01:35:13;32.57;;;31.97;;
80115;SDS011;69423;47.608;19.366;2024-03-22T01:35:44;33.17;;;32.37;;
80115;SDS011;69423;47.608;19.366;2024-03-22T01:36:15;33.77;;;33.03;;
80115;SDS011;69423;47.608;19.366;2024-03-22T01:36:46;33.73;;;33.03;;
80115;SDS011;69423;47.608;19.366;2024-03-22T01:37:17;33.40;;;32.60;;
80115;SDS011;69423;47.608;19.366;2024-03-22T01:37:48;32.77;;;32.13;;
80115;SDS011;69423;47.608;19.366;2024-03-22T01:38:19;34.23;;;33.50;;
80115;SDS011;69423;47.608;19.366;2024-03-22T01:38:50;34.60;;;33.67;;
80115;SDS011;69423;47.608;19.366;2024-03-22T01:39:21;32.60;;;31.90;;
80115;SDS011;69423;47.608;19.366;2024-03-22T01:39:53;32.47;;;31.83;;
80115;SDS011;69423;47.608;19.366;2024-03-22T01:40:24;33.50;;;32.80;;
80115;SDS011;69423;47.608;19.366;2024-03-22T01:40:55;34.07;;;33.10;;
80115;SDS011;69423;47.608;19.366;2024-03-22T01:41:26;33.13;;;32.43;;
80115;SDS011;69423;47.608;19.366;2024-03-22T01:41:57;32.53;;;31.90;;
80115;SDS011;69423;47.608;19.366;2024-03-22T01:42:28;32.03;;;31.03;;
80115;SDS011;69423;47.608;19.366;2024-03-22T01:42:59;33.03;;;31.97;;
80115;SDS011;69423;47.608;19.366;2024-03-22T01:43:32;33.73;;;32.43;;
80115;SDS011;69423;47.608;19.366;2024-03-22T01:44:03;34.10;;;32.90;;
80115;SDS011;69423;47.608;19.366;2024-03-22T01:44:34;32.43;;;31.60;;
80115;SDS011;69423;47.608;19.366;2024-03-22T01:45:05;32.97;;;32.17;;
80115;SDS011;69423;47.608;19.366;2024-03-22T01:45:36;34.00;;;32.90;;
80115;SDS011;69423;47.608;19.366;2024-03-22T01:46:07;32.77;;;31.70;;
80115;SDS011;69423;47.608;19.366;2024-03-22T01:46:39;31.83;;;30.80;;
80115;SDS011;69423;47.608;19.366;2024-03-22T01:47:11;32.70;;;31.67;;
80115;SDS011;69423;47.608;19.366;2024-03-22T01:47:43;33.10;;;32.17;;
80115;SDS011;69423;47.608;19.366;2024-03-22T01:48:14;32.70;;;31.73;;
80115;SDS011;69423;47.608;19.366;2024-03-22T01:48:46;31.03;;;30.07;;
80115;SDS011;69423;47.608;19.366;2024-03-22T01:49:17;31.50;;;30.50;;
80115;SDS011;69423;47.608;19.366;2024-03-22T01:49:49;31.63;;;30.67;;
80115;SDS011;69423;47.608;19.366;2024-03-22T01:50:22;32.30;;;31.30;;
80115;SDS011;69423;47.608;19.366;2024-03-22T01:50:53;32.20;;;31.20;;
80115;SDS011;69423;47.608;19.366;2024-03-22T01:51:24;32.00;;;31.00;;
80115;SDS011;69423;47.608;19.366;2024-03-22T01:51:56;31.30;;;30.57;;
80115;SDS011;69423;47.608;19.366;2024-03-22T01:52:27;30.43;;;29.80;;
80115;SDS011;69423;47.608;19.366;2024-03-22T01:52:58;29.80;;;29.07;;
80115;SDS011;69423;47.608;19.366;2024-03-22T01:53:29;28.90;;;28.00;;
80115;SDS011;69423;47.608;19.366;2024-03-22T01:54:01;29.90;;;28.77;;
80115;SDS011;69423;47.608;19.366;2024-03-22T01:54:34;31.57;;;30.57;;
80115;SDS011;69423;47.608;19.366;2024-03-22T01:55:05;31.70;;;30.67;;
80115;SDS011;69423;47.608;19.366;2024-03-22T01:55:37;32.50;;;31.53;;
80115;SDS011;69423;47.608;19.366;2024-03-22T01:56:09;31.57;;;30.50;;
80115;SDS011;69423;47.608;19.366;2024-03-22T01:56:41;32.13;;;30.93;;
80115;SDS011;69423;47.608;19.366;2024-03-22T01:57:12;31.93;;;30.73;;
80115;SDS011;69423;47.608;19.366;2024-03-22T01:57:43;31.07;;;30.30;;
80115;SDS011;69423;47.608;19.366;2024-03-22T01:58:14;31.10;;;30.37;;
80115;SDS011;69423;47.608;19.366;2024-03-22T01:58:47;29.80;;;29.27;;
80115;SDS011;69423;47.608;19.366;2024-03-22T01:59:19;30.17;;;29.50;;
80115;SDS011;69423;47.608;19.366;2024-03-22T01:59:51;31.97;;;30.87;;
80115;SDS011;69423;47.608;19.366;2024-03-22T02:00:26;31.67;;;30.30;;
80115;SDS011;69423;47.608;19.366;2024-03-22T02:00:57;30.70;;;29.73;;
80115;SDS011;69423;47.608;19.366;2024-03-22T02:01:29;30.63;;;29.73;;
80115;SDS011;69423;47.608;19.366;2024-03-22T02:02:00;30.77;;;30.03;;
80115;SDS011;69423;47.608;19.366;2024-03-22T02:02:31;31.50;;;30.80;;
80115;SDS011;69423;47.608;19.366;2024-03-22T02:03:02;30.90;;;30.23;;
80115;SDS011;69423;47.608;19.366;2024-03-22T02:03:33;30.37;;;29.40;;
80115;SDS011;69423;47.608;19.366;2024-03-22T02:04:04;30.17;;;29.20;;
80115;SDS011;69423;47.608;19.366;2024-03-22T02:04:35;30.70;;;29.63;;
80115;SDS011;69423;47.608;19.366;2024-03-22T02:05:15;32.73;;;31.43;;
80115;SDS011;69423;47.608;19.366;2024-03-22T02:05:49;31.17;;;30.07;;
80115;SDS011;69423;47.608;19.366;2024-03-22T02:06:20;31.57;;;30.27;;
80115;SDS011;69423;47.608;19.366;2024-03-22T02:06:51;32.30;;;30.77;;
80115;SDS011;69423;47.608;19.366;2024-03-22T02:07:23;33.33;;;31.80;;
80115;SDS011;69423;47.608;19.366;2024-03-22T02:07:54;31.47;;;30.47;;
80115;SDS011;69423;47.608;19.366;2024-03-22T02:08:25;30.47;;;29.60;;
80115;SDS011;69423;47.608;19.366;2024-03-22T02:08:56;31.53;;;30.73;;
80115;SDS011;69423;47.608;19.366;2024-03-22T02:09:28;31.40;;;30.87;;
80115;SDS011;69423;47.608;19.366;2024-03-22T02:09:59;31.77;;;31.03;;
80115;SDS011;69423;47.608;19.366;2024-03-22T02:10:30;32.53;;;31.43;;
80115;SDS011;69423;47.608;19.366;2024-03-22T02:11:02;32.37;;;31.20;;
80115;SDS011;69423;47.608;19.366;2024-03-22T02:11:33;31.07;;;30.30;;
80115;SDS011;69423;47.608;19.366;2024-03-22T02:12:05;30.53;;;29.60;;
80115;SDS011;69423;47.608;19.366;2024-03-22T02:12:37;30.00;;;29.13;;
80115;SDS011;69423;47.608;19.366;2024-03-22T02:13:08;31.47;;;30.63;;
80115;SDS011;69423;47.608;19.366;2024-03-22T02:13:39;31.43;;;30.57;;
80115;SDS011;69423;47.608;19.366;2024-03-22T02:14:10;30.63;;;29.83;;
80115;SDS011;69423;47.608;19.366;2024-03-22T02:14:41;30.63;;;29.80;;
80115;SDS011;69423;47.608;19.366;2024-03-22T02:15:12;31.10;;;30.00;;
80115;SDS011;69423;47.608;19.366;2024-03-22T02:15:43;31.10;;;29.97;;
80115;SDS011;69423;47.608;19.366;2024-03-22T02:16:14;30.13;;;29.07;;
80115;SDS011;69423;47.608;19.366;2024-03-22T02:16:45;30.67;;;29.60;;
80115;SDS011;69423;47.608;19.366;2024-03-22T02:17:17;31.33;;;30.37;;
80115;SDS011;69423;47.608;19.366;2024-03-22T02:17:48;30.53;;;29.63;;
80115;SDS011;69423;47.608;19.366;2024-03-22T02:18:19;29.97;;;29.17;;
80115;SDS011;69423;47.608;19.366;2024-03-22T02:18:51;30.70;;;29.73;;
80115;SDS011;69423;47.608;19.366;2024-03-22T02:19:22;31.10;;;29.93;;
80115;SDS011;69423;47.608;19.366;2024-03-22T02:19:53;32.37;;;31.20;;
80115;SDS011;69423;47.608;19.366;2024-03-22T02:20:24;32.33;;;31.27;;
80115;SDS011;69423;47.608;19.366;2024-03-22T02:20:56;31.93;;;30.90;;
80115;SDS011;69423;47.608;19.366;2024-03-22T02:21:28;32.50;;;31.47;;
80115;SDS011;69423;47.608;19.366;2024-03-22T02:21:59;32.63;;;31.60;;
80115;SDS011;69423;47.608;19.366;2024-03-22T02:22:30;32.33;;;31.37;;
80115;SDS011;69423;47.608;19.366;2024-03-22T02:23:01;34.90;;;33.73;;
80115;SDS011;69423;47.608;19.366;2024-03-22T02:23:36;33.83;;;33.00;;
80115;SDS011;69423;47.608;19.366;2024-03-22T02:24:08;35.17;;;34.27;;
80115;SDS011;69423;47.608;19.366;2024-03-22T02:24:39;36.70;;;35.70;;
80115;SDS011;69423;47.608;19.366;2024-03-22T02:25:10;32.83;;;31.90;;
80115;SDS011;69423;47.608;19.366;2024-03-22T02:25:41;35.13;;;33.63;;
80115;SDS011;69423;47.608;19.366;2024-03-22T02:26:12;34.67;;;33.43;;
80115;SDS011;69423;47.608;19.366;2024-03-22T02:26:43;34.20;;;33.13;;
80115;SDS011;69423;47.608;19.366;2024-03-22T02:27:14;36.70;;;35.23;;
80115;SDS011;69423;47.608;19.366;2024-03-22T02:27:45;37.43;;;35.97;;
80115;SDS011;69423;47.608;19.366;2024-03-22T02:28:20;37.00;;;35.40;;
80115;SDS011;69423;47.608;19.366;2024-03-22T02:28:51;36.43;;;35.17;;
80115;SDS011;69423;47.608;19.366;2024-03-22T02:29:22;37.07;;;35.77;;
80115;SDS011;69423;47.608;19.366;2024-03-22T02:29:53;37.27;;;35.87;;
80115;SDS011;69423;47.608;19.366;2024-03-22T02:30:25;36.43;;;35.13;;
80115;SDS011;69423;47.608;19.366;2024-03-22T02:30:56;36.13;;;34.90;;
80115;SDS011;69423;47.608;19.366;2024-03-22T02:31:27;35.27;;;34.17;;
80115;SDS011;69423;47.608;19.366;2024-03-22T02:31:58;36.73;;;35.43;;
80115;SDS011;69423;47.608;19.366;2024-03-22T02:32:29;34.73;;;33.50;;
80115;SDS011;69423;47.608;19.366;2024-03-22T02:33:00;34.67;;;33.43;;
80115;SDS011;69423;47.608;19.366;2024-03-22T02:33:31;33.97;;;32.87;;
80115;SDS011;69423;47.608;19.366;2024-03-22T02:34:02;34.33;;;33.17;;
80115;SDS011;69423;47.608;19.366;2024-03-22T02:34:33;34.60;;;33.30;;
80115;SDS011;69423;47.608;19.366;2024-03-22T02:35:04;35.27;;;33.87;;
80115;SDS011;69423;47.608;19.366;2024-03-22T02:35:35;36.00;;;34.43;;
80115;SDS011;69423;47.608;19.366;2024-03-22T02:36:06;36.83;;;35.27;;
80115;SDS011;69423;47.608;19.366;2024-03-22T02:36:37;35.40;;;34.17;;
80115;SDS011;69423;47.608;19.366;2024-03-22T02:37:08;35.17;;;34.03;;
80115;SDS011;69423;47.608;19.366;2024-03-22T02:37:39;33.17;;;32.17;;
80115;SDS011;69423;47.608;19.366;2024-03-22T02:38:10;32.20;;;31.23;;
80115;SDS011;69423;47.608;19.366;2024-03-22T02:38:41;32.07;;;31.03;;
80115;SDS011;69423;47.608;19.366;2024-03-22T02:39:12;29.73;;;28.70;;
80115;SDS011;69423;47.608;19.366;2024-03-22T02:39:44;32.13;;;30.73;;
80115;SDS011;69423;47.608;19.366;2024-03-22T02:40:15;32.33;;;31.03;;
80115;SDS011;69423;47.608;19.366;2024-03-22T02:40:46;31.07;;;30.10;;
80115;SDS011;69423;47.608;19.366;2024-03-22T02:41:18;32.03;;;30.80;;
80115;SDS011;69423;47.608;19.366;2024-03-22T02:41:49;32.67;;;31.67;;
80115;SDS011;69423;47.608;19.366;2024-03-22T02:42:20;31.37;;;30.43;;
80115;SDS011;69423;47.608;19.366;2024-03-22T02:42:51;31.33;;;30.20;;
80115;SDS011;69423;47.608;19.366;2024-03-22T02:43:22;30.67;;;29.43;;
80115;SDS011;69423;47.608;19.366;2024-03-22T02:43:53;29.73;;;28.63;;
80115;SDS011;69423;47.608;19.366;2024-03-22T02:44:24;30.03;;;28.80;;
80115;SDS011;69423;47.608;19.366;2024-03-22T02:44:55;30.93;;;29.63;;
80115;SDS011;69423;47.608;19.366;2024-03-22T02:45:26;31.20;;;30.03;;
80115;SDS011;69423;47.608;19.366;2024-03-22T02:45:57;30.90;;;29.73;;
80115;SDS011;69423;47.608;19.366;2024-03-22T02:46:28;29.67;;;28.73;;
80115;SDS011;69423;47.608;19.366;2024-03-22T02:46:59;28.97;;;28.27;;
80115;SDS011;69423;47.608;19.366;2024-03-22T02:47:30;29.50;;;28.77;;
80115;SDS011;69423;47.608;19.366;2024-03-22T02:48:01;29.30;;;28.57;;
80115;SDS011;69423;47.608;19.366;2024-03-22T02:48:33;29.23;;;28.43;;
80115;SDS011;69423;47.608;19.366;2024-03-22T02:49:04;30.00;;;28.87;;
80115;SDS011;69423;47.608;19.366;2024-03-22T02:49:35;32.23;;;30.47;;
80115;SDS011;69423;47.608;19.366;2024-03-22T02:50:06;32.30;;;30.20;;
80115;SDS011;69423;47.608;19.366;2024-03-22T02:50:37;32.00;;;30.23;;
80115;SDS011;69423;47.608;19.366;2024-03-22T02:51:08;31.87;;;30.17;;
80115;SDS011;69423;47.608;19.366;2024-03-22T02:51:39;32.07;;;30.63;;
80115;SDS011;69423;47.608;19.366;2024-03-22T02:52:10;30.53;;;29.33;;
80115;SDS011;69423;47.608;19.366;2024-03-22T02:52:41;30.97;;;29.93;;
80115;SDS011;69423;47.608;19.366;2024-03-22T02:53:12;30.57;;;29.70;;
80115;SDS011;69423;47.608;19.366;2024-03-22T02:53:43;30.33;;;29.27;;
80115;SDS011;69423;47.608;19.366;2024-03-22T02:54:14;30.00;;;28.97;;
80115;SDS011;69423;47.608;19.366;2024-03-22T02:54:45;29.83;;;28.87;;
80115;SDS011;69423;47.608;19.366;2024-03-22T02:55:16;29.87;;;28.90;;
80115;SDS011;69423;47.608;19.366;2024-03-22T02:55:48;29.57;;;28.57;;
80115;SDS011;69423;47.608;19.366;2024-03-22T02:56:19;30.67;;;29.53;;
80115;SDS011;69423;47.608;19.366;2024-03-22T02:56:50;31.67;;;30.47;;
80115;SDS011;69423;47.608;19.366;2024-03-22T02:57:21;31.57;;;30.43;;
80115;SDS011;69423;47.608;19.366;2024-03-22T02:57:52;30.20;;;29.17;;
80115;SDS011;69423;47.608;19.366;2024-03-22T02:58:23;31.17;;;30.10;;
80115;SDS011;69423;47.608;19.366;2024-03-22T02:58:54;31.60;;;30.63;;
80115;SDS011;69423;47.608;19.366;2024-03-22T02:59:25;31.03;;;29.90;;
80115;SDS011;69423;47.608;19.366;2024-03-22T02:59:59;30.00;;;28.87;;